createdAt,value
2023-05-10T00:02:01.724Z,13.30
2023-05-10T00:04:28.316Z,13.30
2023-05-10T00:06:51.568Z,13.30
2023-05-10T00:09:14.855Z,13.30
2023-05-10T00:11:38.169Z,13.20
2023-05-10T00:14:02.769Z,13.20
2023-05-10T00:16:26.089Z,13.10
2023-05-10T00:18:49.358Z,13.10
2023-05-10T00:21:12.710Z,13.10
2023-05-10T00:23:36.054Z,13.10
2023-05-10T00:25:59.536Z,13.10
2023-05-10T00:28:22.812Z,13.00
2023-05-10T00:30:47.366Z,13.00
2023-05-10T00:33:10.669Z,13.00
2023-05-10T00:35:34.128Z,13.00
2023-05-10T00:37:57.355Z,13.10
2023-05-10T00:40:20.726Z,13.00
2023-05-10T00:42:48.519Z,13.00
2023-05-10T00:45:12.643Z,13.00
2023-05-10T00:47:37.680Z,13.00
2023-05-10T00:50:02.335Z,13.00
2023-05-10T00:52:26.965Z,13.00
2023-05-10T00:54:50.371Z,13.00
2023-05-10T00:57:13.800Z,13.00
2023-05-10T00:59:37.619Z,13.00
2023-05-10T01:02:00.906Z,13.00
2023-05-10T01:04:27.606Z,12.90
2023-05-10T01:06:50.870Z,13.00
2023-05-10T01:09:14.211Z,13.00
2023-05-10T01:11:38.005Z,13.00
2023-05-10T01:14:01.544Z,13.00
2023-05-10T01:16:25.154Z,13.00
2023-05-10T01:18:48.758Z,13.00
2023-05-10T01:21:23.346Z,13.00
2023-05-10T01:24:42.300Z,12.90
2023-05-10T01:27:53.046Z,12.90
2023-05-10T01:30:49.430Z,12.90
2023-05-10T01:33:20.604Z,12.80
2023-05-10T01:35:51.428Z,12.80
2023-05-10T01:38:21.348Z,12.80
2023-05-10T01:40:57.593Z,12.70
2023-05-10T01:43:28.848Z,12.70
2023-05-10T01:46:02.143Z,12.70
2023-05-10T01:48:31.182Z,12.80
2023-05-10T01:50:55.781Z,12.90
2023-05-10T01:53:22.152Z,12.90
2023-05-10T01:55:51.316Z,12.90
2023-05-10T01:58:19.476Z,12.90
2023-05-10T02:00:46.762Z,12.90
2023-05-10T02:03:12.866Z,13.00
2023-05-10T02:05:39.161Z,12.80
2023-05-10T02:08:04.033Z,12.90
2023-05-10T02:10:28.686Z,12.90
2023-05-10T02:12:53.250Z,12.90
2023-05-10T02:15:22.080Z,12.90
2023-05-10T02:17:46.662Z,12.90
2023-05-10T02:20:12.683Z,12.90
2023-05-10T02:22:39.086Z,12.90
2023-05-10T02:25:03.239Z,12.90
2023-05-10T02:27:28.039Z,12.90
2023-05-10T02:29:53.263Z,12.90
2023-05-10T02:32:18.745Z,12.80
2023-05-10T02:34:42.631Z,12.90
2023-05-10T02:37:06.952Z,12.90
2023-05-10T02:39:33.879Z,12.80
2023-05-10T02:41:59.043Z,12.90
2023-05-10T02:44:24.494Z,13.00
2023-05-10T02:46:48.901Z,13.00
2023-05-10T02:49:12.660Z,12.90
2023-05-10T02:51:43.283Z,13.00
2023-05-10T02:54:21.696Z,13.00
2023-05-10T02:56:52.915Z,12.90
2023-05-10T02:59:16.523Z,12.90
2023-05-10T03:01:40.112Z,12.90
2023-05-10T03:04:03.700Z,12.90
2023-05-10T03:06:27.490Z,12.90
2023-05-10T03:08:50.867Z,12.90
2023-05-10T03:11:34.650Z,13.00
2023-05-10T03:14:13.069Z,13.00
2023-05-10T03:16:44.919Z,13.00
2023-05-10T03:19:18.815Z,13.00
2023-05-10T03:21:47.400Z,13.00
2023-05-10T03:24:16.268Z,13.00
2023-05-10T03:26:42.396Z,13.00
2023-05-10T03:29:14.036Z,13.00
2023-05-10T03:31:37.817Z,13.00
2023-05-10T03:34:02.300Z,13.00
2023-05-10T03:36:25.521Z,13.00
2023-05-10T03:38:49.074Z,13.10
2023-05-10T03:41:12.816Z,13.00
2023-05-10T03:43:36.484Z,13.00
2023-05-10T03:46:03.982Z,13.00
2023-05-10T03:48:27.275Z,13.00
2023-05-10T03:50:50.909Z,13.00
2023-05-10T03:53:14.387Z,13.00
2023-05-10T03:55:37.761Z,13.00
2023-05-10T03:58:00.977Z,13.00
2023-05-10T04:00:24.406Z,13.00
2023-05-10T04:02:52.168Z,13.00
2023-05-10T04:05:17.018Z,13.00
2023-05-10T04:07:40.342Z,13.00
2023-05-10T04:10:03.873Z,13.00
2023-05-10T04:12:27.215Z,13.10
2023-05-10T04:14:50.600Z,13.10
2023-05-10T04:17:13.917Z,13.00
2023-05-10T04:19:39.285Z,13.10
2023-05-10T04:22:02.510Z,13.00
2023-05-10T04:24:26.226Z,13.00
2023-05-10T04:26:49.538Z,13.00
2023-05-10T04:29:12.787Z,13.00
2023-05-10T04:31:37.243Z,13.00
2023-05-10T04:34:00.642Z,13.10
2023-05-10T04:36:25.284Z,13.10
2023-05-10T04:38:48.531Z,13.10
2023-05-10T04:41:13.083Z,13.10
2023-05-10T04:43:37.514Z,13.00
2023-05-10T04:46:00.878Z,13.10
2023-05-10T04:48:24.167Z,13.10
2023-05-10T04:50:47.812Z,13.10
2023-05-10T04:53:14.015Z,13.00
2023-05-10T04:55:38.543Z,13.10
2023-05-10T04:58:01.927Z,13.10
2023-05-10T05:00:25.662Z,13.10
2023-05-10T05:02:49.041Z,13.10
2023-05-10T05:05:12.392Z,13.20
2023-05-10T05:07:35.791Z,13.20
2023-05-10T05:10:00.437Z,13.20
2023-05-10T05:12:23.663Z,13.20
2023-05-10T05:14:46.993Z,13.20
2023-05-10T05:17:10.242Z,13.30
2023-05-10T05:19:34.670Z,13.20
2023-05-10T05:21:57.959Z,13.30
2023-05-10T05:24:21.188Z,13.40
2023-05-10T05:26:45.800Z,13.40
2023-05-10T05:29:09.294Z,13.20
2023-05-10T05:31:32.833Z,13.20
2023-05-10T05:33:56.215Z,13.30
2023-05-10T05:36:19.499Z,13.20
2023-05-10T05:38:43.573Z,13.10
2023-05-10T05:41:07.234Z,13.20
2023-05-10T05:43:32.128Z,13.20
2023-05-10T05:45:55.606Z,13.20
2023-05-10T05:48:18.866Z,13.20
2023-05-10T05:50:42.169Z,13.20
2023-05-10T05:53:05.397Z,13.20
2023-05-10T05:55:28.677Z,13.20
2023-05-10T05:57:51.919Z,13.30
2023-05-10T06:00:17.959Z,13.30
2023-05-10T06:02:42.945Z,13.20
2023-05-10T06:05:07.613Z,13.30
2023-05-10T06:07:30.822Z,13.20
2023-05-10T06:09:54.092Z,13.20
2023-05-10T06:12:17.385Z,13.20
2023-05-10T06:14:40.626Z,13.10
2023-05-10T06:17:06.133Z,13.20
2023-05-10T06:19:29.402Z,13.20
2023-05-10T06:21:53.817Z,13.20
2023-05-10T06:24:17.293Z,13.20
2023-05-10T06:26:40.564Z,13.30
2023-05-10T06:29:03.812Z,13.20
2023-05-10T06:31:27.121Z,13.30
2023-05-10T06:33:51.808Z,13.30
2023-05-10T06:36:15.412Z,13.30
2023-05-10T06:38:38.804Z,13.30
2023-05-10T06:41:02.383Z,13.30
2023-05-10T06:43:25.860Z,13.30
2023-05-10T06:45:50.327Z,13.40
2023-05-10T06:48:13.632Z,13.30
2023-05-10T06:50:38.412Z,13.30
2023-05-10T06:53:02.647Z,13.40
2023-05-10T06:55:26.016Z,13.30
2023-05-10T06:57:49.431Z,13.20
2023-05-10T07:00:13.677Z,13.20
2023-05-10T07:02:37.027Z,13.20
2023-05-10T07:05:02.729Z,13.30
2023-05-10T07:07:28.136Z,13.30
2023-05-10T07:09:52.181Z,13.30
2023-05-10T07:12:16.171Z,13.40
2023-05-10T07:14:39.543Z,13.50
2023-05-10T07:17:02.783Z,13.50
2023-05-10T07:19:26.306Z,13.50
2023-05-10T07:21:49.537Z,13.60
2023-05-10T07:24:14.136Z,13.70
2023-05-10T07:26:37.481Z,13.50
2023-05-10T07:29:00.797Z,13.50
2023-05-10T07:31:24.099Z,13.60
2023-05-10T07:33:47.520Z,13.60
2023-05-10T07:36:10.902Z,13.80
2023-05-10T07:38:34.282Z,14.00
2023-05-10T07:40:58.913Z,13.90
2023-05-10T07:43:22.248Z,14.00
2023-05-10T07:45:45.606Z,13.90
2023-05-10T07:48:08.977Z,13.80
2023-05-10T07:50:32.366Z,14.00
2023-05-10T07:52:55.682Z,13.90
2023-05-10T07:55:22.051Z,14.10
2023-05-10T07:57:46.961Z,14.30
2023-05-10T08:00:13.959Z,14.00
2023-05-10T08:02:37.950Z,14.10
2023-05-10T08:05:01.304Z,14.10
2023-05-10T08:07:25.284Z,14.10
2023-05-10T08:09:48.589Z,14.10
2023-05-10T08:12:11.800Z,14.00
2023-05-10T08:14:37.560Z,13.90
2023-05-10T08:17:00.826Z,14.00
2023-05-10T08:19:24.877Z,13.80
2023-05-10T08:21:48.137Z,14.00
2023-05-10T08:24:11.523Z,13.80
2023-05-10T08:26:35.632Z,13.80
2023-05-10T08:28:58.906Z,13.80
2023-05-10T08:31:23.560Z,13.80
2023-05-10T08:33:47.107Z,13.70
2023-05-10T08:36:10.830Z,13.70
2023-05-10T08:38:34.154Z,13.90
2023-05-10T08:40:59.419Z,13.80
2023-05-10T08:43:23.183Z,13.90
2023-05-10T08:45:47.970Z,14.00
2023-05-10T08:48:13.457Z,14.00
2023-05-10T08:50:38.819Z,14.20
2023-05-10T08:53:06.722Z,14.10
2023-05-10T08:55:30.216Z,14.10
2023-05-10T08:57:53.704Z,14.10
2023-05-10T09:00:17.952Z,14.00
2023-05-10T09:02:41.556Z,14.20
2023-05-10T09:05:07.714Z,14.20
2023-05-10T09:07:31.041Z,14.30
2023-05-10T09:09:55.768Z,14.20
2023-05-10T09:12:18.989Z,14.20
2023-05-10T09:14:42.384Z,14.00
2023-05-10T09:17:06.615Z,14.00
2023-05-10T09:19:30.671Z,14.10
2023-05-10T09:21:56.750Z,14.00
2023-05-10T09:24:19.978Z,14.00
2023-05-10T09:26:49.809Z,14.10
2023-05-10T09:29:15.153Z,14.20
2023-05-10T09:31:52.461Z,14.40
2023-05-10T09:34:19.977Z,14.50
2023-05-10T09:36:58.497Z,14.40
2023-05-10T09:39:22.401Z,14.40
2023-05-10T09:41:46.205Z,14.40
2023-05-10T09:44:10.090Z,14.20
2023-05-10T09:46:37.988Z,14.20
2023-05-10T09:49:01.397Z,14.00
2023-05-10T09:51:25.817Z,14.00
2023-05-10T09:53:51.721Z,14.00
2023-05-10T09:56:15.297Z,14.00
2023-05-10T09:58:40.051Z,14.00
2023-05-10T10:01:03.670Z,14.10
2023-05-10T10:03:29.710Z,14.00
2023-05-10T10:05:54.329Z,14.10
2023-05-10T10:08:19.471Z,14.00
2023-05-10T10:10:46.441Z,14.20
2023-05-10T10:13:10.439Z,14.10
2023-05-10T10:15:35.887Z,14.20
2023-05-10T10:17:59.345Z,14.40
2023-05-10T10:20:26.103Z,14.40
2023-05-10T10:22:50.301Z,14.40
2023-05-10T10:25:16.863Z,14.50
2023-05-10T10:27:51.475Z,14.50
2023-05-10T10:30:24.635Z,14.40
2023-05-10T10:33:24.306Z,14.40
2023-05-10T10:35:52.977Z,14.30
2023-05-10T10:38:16.407Z,14.50
2023-05-10T10:40:39.648Z,14.20
2023-05-10T10:43:26.548Z,14.20
2023-05-10T10:46:14.338Z,14.20
2023-05-10T10:48:38.561Z,14.40
2023-05-10T10:51:02.398Z,14.40
2023-05-10T10:53:29.678Z,14.50
2023-05-10T10:56:08.969Z,14.60
2023-05-10T10:58:34.734Z,14.80
2023-05-10T11:01:13.739Z,14.60
2023-05-10T11:03:37.065Z,14.70
2023-05-10T11:06:02.568Z,14.80
2023-05-10T11:08:30.438Z,14.90
2023-05-10T11:11:11.641Z,15.00
2023-05-10T11:13:40.957Z,15.00
2023-05-10T11:16:19.194Z,14.80
2023-05-10T11:18:43.137Z,14.80
2023-05-10T11:21:06.969Z,14.60
2023-05-10T11:23:34.833Z,14.60
2023-05-10T11:25:58.252Z,14.50
2023-05-10T11:28:21.543Z,14.50
2023-05-10T11:30:46.874Z,14.70
2023-05-10T11:33:16.618Z,14.70
2023-05-10T11:35:43.189Z,14.80
2023-05-10T11:38:09.204Z,14.90
2023-05-10T11:40:32.456Z,14.80
2023-05-10T11:42:58.621Z,14.90
2023-05-10T11:45:22.751Z,14.80
2023-05-10T11:47:51.024Z,14.70
2023-05-10T11:50:14.499Z,14.80
2023-05-10T11:52:39.113Z,14.90
2023-05-10T11:55:02.375Z,14.80
2023-05-10T11:57:29.669Z,15.00
2023-05-10T11:59:56.370Z,15.00
2023-05-10T12:02:19.794Z,15.00
2023-05-10T12:04:45.072Z,15.10
2023-05-10T12:07:08.532Z,15.20
2023-05-10T12:09:43.120Z,15.10
2023-05-10T12:12:07.875Z,15.00
2023-05-10T12:14:34.323Z,15.20
2023-05-10T12:16:59.830Z,15.40
2023-05-10T12:19:23.146Z,15.30
2023-05-10T12:21:47.768Z,15.60
2023-05-10T12:24:11.525Z,15.80
2023-05-10T12:26:35.440Z,15.90
2023-05-10T12:29:16.612Z,16.10
2023-05-10T12:31:53.074Z,17.00
2023-05-10T12:34:26.796Z,17.30
2023-05-10T12:36:54.780Z,16.70
2023-05-10T12:39:17.982Z,17.50
2023-05-10T12:41:43.445Z,17.20
2023-05-10T12:44:07.015Z,17.00
2023-05-10T12:46:30.503Z,17.00
2023-05-10T12:49:08.042Z,16.80
2023-05-10T12:51:32.512Z,16.50
2023-05-10T12:53:57.137Z,16.80
2023-05-10T12:56:21.086Z,17.00
2023-05-10T12:58:49.112Z,17.00
2023-05-10T13:01:12.634Z,17.10
2023-05-10T13:03:35.950Z,17.00
2023-05-10T13:05:59.283Z,17.00
2023-05-10T13:08:22.565Z,16.60
2023-05-10T13:10:47.186Z,17.20
2023-05-10T13:13:10.769Z,17.10
2023-05-10T13:15:34.044Z,17.10
2023-05-10T13:17:57.460Z,17.00
2023-05-10T13:20:20.979Z,17.50
2023-05-10T13:22:45.360Z,17.70
2023-05-10T13:25:09.521Z,17.80
2023-05-10T13:27:34.413Z,17.50
2023-05-10T13:29:57.648Z,17.50
2023-05-10T13:32:21.303Z,17.40
2023-05-10T13:34:44.660Z,17.00
2023-05-10T13:37:07.928Z,17.10
2023-05-10T13:39:34.277Z,17.00
2023-05-10T13:41:57.475Z,17.50
2023-05-10T13:44:23.154Z,17.00
2023-05-10T13:46:46.527Z,17.20
2023-05-10T13:49:10.653Z,17.00
2023-05-10T13:51:33.915Z,17.10
2023-05-10T13:53:57.262Z,17.00
2023-05-10T13:56:20.493Z,17.00
2023-05-10T13:58:43.815Z,17.20
2023-05-10T14:01:08.710Z,16.90
2023-05-10T14:03:32.228Z,17.10
2023-05-10T14:05:55.571Z,17.00
2023-05-10T14:08:18.962Z,17.20
2023-05-10T14:10:42.246Z,17.20
2023-05-10T14:13:05.591Z,17.00
2023-05-10T14:15:29.161Z,16.90
2023-05-10T14:17:53.873Z,17.00
2023-05-10T14:20:17.376Z,17.00
2023-05-10T14:22:41.515Z,17.20
2023-05-10T14:25:05.414Z,17.20
2023-05-10T14:27:28.835Z,17.50
2023-05-10T14:29:52.107Z,17.50
2023-05-10T14:32:15.456Z,17.30
2023-05-10T14:34:40.158Z,17.50
2023-05-10T14:37:03.393Z,17.20
2023-05-10T14:39:26.782Z,17.30
2023-05-10T14:41:49.961Z,17.50
2023-05-10T14:44:13.354Z,17.40
2023-05-10T14:46:36.587Z,17.20
2023-05-10T14:49:00.553Z,17.10
2023-05-10T14:51:25.403Z,17.00
2023-05-10T14:53:49.217Z,17.00
2023-05-10T14:56:12.499Z,17.00
2023-05-10T14:58:35.865Z,16.90
2023-05-10T15:00:59.306Z,16.80
2023-05-10T15:03:23.355Z,16.70
2023-05-10T15:05:47.694Z,16.80
2023-05-10T15:08:13.521Z,16.80
2023-05-10T15:10:37.706Z,16.90
2023-05-10T15:13:01.534Z,16.50
2023-05-10T15:15:25.036Z,16.30
2023-05-10T15:17:49.792Z,16.50
2023-05-10T15:20:13.898Z,16.20
2023-05-10T15:22:37.379Z,16.00
2023-05-10T15:25:02.897Z,15.80
2023-05-10T15:27:26.089Z,15.20
2023-05-10T15:29:49.353Z,15.00
2023-05-10T15:32:12.598Z,14.60
2023-05-10T15:34:37.155Z,14.40
2023-05-10T15:37:00.549Z,14.30
2023-05-10T15:39:23.850Z,14.30
2023-05-10T15:41:49.801Z,14.20
2023-05-10T15:44:13.056Z,14.10
2023-05-10T15:46:36.430Z,14.00
2023-05-10T15:49:00.254Z,14.00
2023-05-10T15:51:23.563Z,14.10
2023-05-10T15:53:56.829Z,14.10
2023-05-10T15:56:24.127Z,14.30
2023-05-10T15:58:49.035Z,14.20
2023-05-10T16:01:13.070Z,14.10
2023-05-10T16:03:37.570Z,14.10
2023-05-10T16:06:01.231Z,14.00
2023-05-10T16:08:24.622Z,13.90
2023-05-10T16:10:47.890Z,13.90
2023-05-10T16:13:11.297Z,14.00
2023-05-10T16:15:35.938Z,14.00
2023-05-10T16:17:59.506Z,13.80
2023-05-10T16:20:22.911Z,13.80
2023-05-10T16:22:46.173Z,13.90
2023-05-10T16:25:12.657Z,13.60
2023-05-10T16:27:37.095Z,13.70
2023-05-10T16:30:00.418Z,13.50
2023-05-10T16:32:25.119Z,13.60
2023-05-10T16:34:50.150Z,13.60
2023-05-10T16:37:13.394Z,13.60
2023-05-10T16:39:36.637Z,13.70
2023-05-10T16:41:59.877Z,13.50
2023-05-10T16:44:25.754Z,13.50
2023-05-10T16:46:49.305Z,13.50
2023-05-10T16:49:14.023Z,13.60
2023-05-10T16:51:37.328Z,13.60
2023-05-10T16:54:00.566Z,13.50
2023-05-10T16:56:24.446Z,13.50
2023-05-10T16:58:49.842Z,13.50
2023-05-10T17:01:13.156Z,13.50
2023-05-10T17:03:36.853Z,13.50
2023-05-10T17:06:01.707Z,13.50
2023-05-10T17:08:24.957Z,13.30
2023-05-10T17:10:48.236Z,13.50
2023-05-10T17:13:11.810Z,13.40
2023-05-10T17:15:37.335Z,13.50
2023-05-10T17:18:00.784Z,13.50
2023-05-10T17:20:24.185Z,13.50
2023-05-10T17:22:49.582Z,13.50
2023-05-10T17:25:12.901Z,13.50
2023-05-10T17:27:36.597Z,13.50
2023-05-10T17:30:00.116Z,13.60
2023-05-10T17:32:23.582Z,13.50
2023-05-10T17:34:47.443Z,13.50
2023-05-10T17:37:10.816Z,13.60
2023-05-10T17:39:36.759Z,13.50
2023-05-10T17:42:00.850Z,13.60
2023-05-10T17:44:25.444Z,13.50
2023-05-10T17:46:48.731Z,13.50
2023-05-10T17:49:12.027Z,13.50
2023-05-10T17:51:35.392Z,13.60
2023-05-10T17:53:58.945Z,13.60
2023-05-10T17:56:24.436Z,13.60
2023-05-10T17:58:47.710Z,13.60
2023-05-10T18:01:11.112Z,13.70
2023-05-10T18:03:35.884Z,13.60
2023-05-10T18:05:59.386Z,13.60
2023-05-10T18:08:26.768Z,13.50
2023-05-10T18:10:50.280Z,13.60
2023-05-10T18:13:14.901Z,13.50
2023-05-10T18:15:38.507Z,13.50
2023-05-10T18:18:04.172Z,13.60
2023-05-10T18:20:27.560Z,13.60
2023-05-10T18:22:51.018Z,13.50
2023-05-10T18:25:14.564Z,13.50
2023-05-10T18:27:38.136Z,13.50
2023-05-10T18:30:03.141Z,13.60
2023-05-10T18:32:26.525Z,13.60
2023-05-10T18:34:49.788Z,13.60
2023-05-10T18:37:13.561Z,13.60
2023-05-10T18:39:37.905Z,13.70
2023-05-10T18:42:01.375Z,13.60
2023-05-10T18:44:26.441Z,13.60
2023-05-10T18:46:54.089Z,13.60
2023-05-10T18:49:17.441Z,13.60
2023-05-10T18:51:41.232Z,13.60
2023-05-10T18:54:04.681Z,13.60
2023-05-10T18:56:27.902Z,13.50
2023-05-10T18:58:51.376Z,13.60
2023-05-10T19:01:14.614Z,13.60
2023-05-10T19:03:39.323Z,13.60
2023-05-10T19:06:02.560Z,13.50
2023-05-10T19:08:25.858Z,13.40
2023-05-10T19:10:49.117Z,13.40
2023-05-10T19:13:12.770Z,13.50
2023-05-10T19:15:36.260Z,13.40
2023-05-10T19:17:59.709Z,13.40
2023-05-10T19:20:25.164Z,13.50
2023-05-10T19:23:02.250Z,13.50
2023-05-10T19:25:33.610Z,13.50
2023-05-10T19:27:57.997Z,13.50
2023-05-10T19:30:21.448Z,13.60
2023-05-10T19:32:45.020Z,13.50
2023-05-10T19:35:09.443Z,13.50
2023-05-10T19:37:34.010Z,13.50
2023-05-10T19:39:57.348Z,13.30
2023-05-10T19:42:21.695Z,13.30
2023-05-10T19:44:45.095Z,13.30
2023-05-10T19:47:09.127Z,13.30
2023-05-10T19:49:32.550Z,13.40
2023-05-10T19:51:55.919Z,13.40
2023-05-10T19:54:20.628Z,13.50
2023-05-10T19:56:43.917Z,13.30
2023-05-10T19:59:07.847Z,13.40
2023-05-10T20:01:32.783Z,13.30
2023-05-10T20:03:56.912Z,13.30
2023-05-10T20:06:20.261Z,13.30
2023-05-10T20:08:43.743Z,13.30
2023-05-10T20:11:08.417Z,13.20
2023-05-10T20:13:31.880Z,13.20
2023-05-10T20:15:57.572Z,13.20
2023-05-10T20:18:20.938Z,13.10
2023-05-10T20:20:44.335Z,13.10
2023-05-10T20:23:07.618Z,13.10
2023-05-10T20:25:31.288Z,13.00
2023-05-10T20:27:55.954Z,13.00
2023-05-10T20:30:19.944Z,13.00
2023-05-10T20:32:43.717Z,13.00
2023-05-10T20:35:08.176Z,12.90
2023-05-10T20:37:31.497Z,12.90
2023-05-10T20:39:55.052Z,12.80
2023-05-10T20:42:18.403Z,12.80
2023-05-10T20:44:43.346Z,12.80
2023-05-10T20:47:07.023Z,12.80
2023-05-10T20:49:30.451Z,12.70
2023-05-10T20:51:53.791Z,12.60
2023-05-10T20:54:17.015Z,12.60
2023-05-10T20:56:40.325Z,12.60
2023-05-10T20:59:03.585Z,12.50
2023-05-10T21:01:28.450Z,12.50
2023-05-10T21:03:51.676Z,12.50
2023-05-10T21:06:15.034Z,12.60
2023-05-10T21:08:38.342Z,12.60
2023-05-10T21:11:05.655Z,12.50
2023-05-10T21:13:28.987Z,12.50
2023-05-10T21:15:52.314Z,12.50
2023-05-10T21:18:17.093Z,12.50
2023-05-10T21:20:40.568Z,12.50
2023-05-10T21:23:03.837Z,12.50
2023-05-10T21:25:27.251Z,12.50
2023-05-10T21:27:50.737Z,12.60
2023-05-10T21:30:15.100Z,12.50
2023-05-10T21:32:38.461Z,12.60
2023-05-10T21:35:04.265Z,12.50
2023-05-10T21:37:27.593Z,12.60
2023-05-10T21:39:52.790Z,12.50
2023-05-10T21:42:16.079Z,12.50
2023-05-10T21:44:39.704Z,12.50
2023-05-10T21:47:03.071Z,12.50
2023-05-10T21:49:26.315Z,12.50
2023-05-10T21:51:50.983Z,12.60
2023-05-10T21:54:14.268Z,12.60
2023-05-10T21:56:37.601Z,12.60
2023-05-10T21:59:01.325Z,12.60
2023-05-10T22:01:24.798Z,12.70
2023-05-10T22:03:48.148Z,12.70
2023-05-10T22:06:11.399Z,12.70
2023-05-10T22:08:36.075Z,12.70
2023-05-10T22:10:59.315Z,12.70
2023-05-10T22:13:22.554Z,12.70
2023-05-10T22:15:45.919Z,12.60
2023-05-10T22:18:09.241Z,12.60
2023-05-10T22:20:32.579Z,12.80
2023-05-10T22:22:56.481Z,12.80
2023-05-10T22:25:21.348Z,12.70
2023-05-10T22:27:44.686Z,12.70
2023-05-10T22:30:09.954Z,12.80
2023-05-10T22:32:34.075Z,12.80
2023-05-10T22:34:57.405Z,12.80
2023-05-10T22:37:20.644Z,12.80
2023-05-10T22:39:43.921Z,12.80
2023-05-10T22:42:08.531Z,12.80
2023-05-10T22:44:31.740Z,12.80
2023-05-10T22:46:55.094Z,12.80
2023-05-10T22:49:18.440Z,12.80
2023-05-10T22:51:42.030Z,12.80
2023-05-10T22:54:07.047Z,12.80
2023-05-10T22:56:30.330Z,12.80
2023-05-10T22:58:55.076Z,12.80
2023-05-10T23:01:18.353Z,12.80
2023-05-10T23:03:42.111Z,12.80
2023-05-10T23:06:06.569Z,12.80
2023-05-10T23:08:29.820Z,12.80
2023-05-10T23:10:53.092Z,12.70
2023-05-10T23:13:16.386Z,12.80
2023-05-10T23:15:41.164Z,12.70
2023-05-10T23:18:05.833Z,12.70
2023-05-10T23:20:29.778Z,12.80
2023-05-10T23:22:53.142Z,12.80
2023-05-10T23:25:17.189Z,12.70
2023-05-10T23:27:40.490Z,12.60
2023-05-10T23:30:04.383Z,12.60
2023-05-10T23:32:28.970Z,12.60
2023-05-10T23:34:52.333Z,12.60
2023-05-10T23:37:15.645Z,12.70
2023-05-10T23:39:38.880Z,12.70
2023-05-10T23:42:03.273Z,12.70
2023-05-10T23:44:26.546Z,12.60
2023-05-10T23:46:49.956Z,12.60
2023-05-10T23:49:14.967Z,12.50
2023-05-10T23:51:38.441Z,12.60
2023-05-10T23:54:02.064Z,12.60
2023-05-10T23:56:25.381Z,12.60
2023-05-10T23:58:48.664Z,12.70
